Time;durP1;ratioP1;P1;durP2;ratioP2;P2;SDS_P1;SDS_P2;PMS_P1;PMS_P2;Temp;Humidity;BMP_temperature;BMP_pressure;BME280_temperature;BME280_humidity;BME280_pressure;Samples;Min_cycle;Max_cycle;Signal;HPM_P1;HPM_P2
2022/07/06 00:00:46;;;;;;;4.80;1.15;;;;;;;;;;4955855;29;20669;-53
2022/07/06 00:03:13;;;;;;;3.30;0.90;;;;;;;;;;4955578;29;20179;-55
2022/07/06 00:05:39;;;;;;;6.15;1.38;;;;;;;;;;4955761;29;20183;-52
2022/07/06 00:08:05;;;;;;;3.90;1.00;;;;;;;;;;4955949;29;20582;-55
2022/07/06 00:10:31;;;;;;;3.35;0.80;;;;;;;;;;4954821;28;20257;-54
2022/07/06 00:12:57;;;;;;;5.13;1.20;;;;;;;;;;4940825;29;20737;-53
2022/07/06 00:15:23;;;;;;;4.43;1.05;;;;;;;;;;4955484;29;20186;-54
2022/07/06 00:17:50;;;;;;;4.45;0.93;;;;;;;;;;4955460;28;20562;-54
2022/07/06 00:20:16;;;;;;;3.67;1.15;;;;;;;;;;4955555;29;20195;-50
2022/07/06 00:22:42;;;;;;;6.95;1.05;;;;;;;;;;4955602;29;20274;-53
2022/07/06 00:25:08;;;;;;;6.93;1.20;;;;;;;;;;4954356;28;20190;-55
2022/07/06 00:27:35;;;;;;;5.28;0.90;;;;;;;;;;4955294;29;20567;-56
2022/07/06 00:30:01;;;;;;;3.38;1.08;;;;;;;;;;4938050;29;20194;-52
2022/07/06 00:32:27;;;;;;;5.45;0.93;;;;;;;;;;4938153;29;20185;-55
2022/07/06 00:34:53;;;;;;;4.40;1.00;;;;;;;;;;4955138;29;20608;-53
2022/07/06 00:37:20;;;;;;;8.27;1.13;;;;;;;;;;4938279;29;20686;-57
2022/07/06 00:39:46;;;;;;;8.60;1.00;;;;;;;;;;4919328;29;20562;-53
2022/07/06 00:42:12;;;;;;;2.75;0.77;;;;;;;;;;4923813;29;20194;-56
2022/07/06 00:44:38;;;;;;;6.20;1.23;;;;;;;;;;4939224;29;20234;-54
2022/07/06 00:47:05;;;;;;;8.07;0.75;;;;;;;;;;4944092;29;20190;-53
2022/07/06 00:52:16;;;;;;;4.63;0.88;;;;;;;;;;4955279;29;20211;-53
2022/07/06 00:54:43;;;;;;;5.45;1.10;;;;;;;;;;4937914;29;20210;-50
2022/07/06 00:57:09;;;;;;;5.40;0.98;;;;;;;;;;4938127;29;20210;-51
2022/07/06 00:59:36;;;;;;;3.50;1.23;;;;;;;;;;4953914;28;20233;-54
2022/07/06 01:02:02;;;;;;;2.95;1.00;;;;;;;;;;4937979;29;20174;-53
2022/07/06 01:04:28;;;;;;;3.33;0.73;;;;;;;;;;4937921;29;20232;-53
2022/07/06 01:06:55;;;;;;;5.85;0.70;;;;;;;;;;4937869;29;20245;-55
2022/07/06 01:09:21;;;;;;;3.50;0.90;;;;;;;;;;4954333;29;20194;-53
2022/07/06 01:11:49;;;;;;;3.70;0.85;;;;;;;;;;4920868;29;20209;-51
2022/07/06 01:14:15;;;;;;;3.05;0.70;;;;;;;;;;4918342;29;20663;-52
2022/07/06 01:16:42;;;;;;;4.70;0.90;;;;;;;;;;4921134;29;20219;-53
2022/07/06 01:19:08;;;;;;;4.25;0.70;;;;;;;;;;4953639;28;20650;-54
2022/07/06 01:21:34;;;;;;;4.18;0.70;;;;;;;;;;4937799;29;20201;-54
2022/07/06 01:24:00;;;;;;;6.22;0.90;;;;;;;;;;4954345;29;20178;-55
2022/07/06 01:26:26;;;;;;;2.95;0.90;;;;;;;;;;4937422;29;20890;-52
2022/07/06 01:28:52;;;;;;;4.10;0.75;;;;;;;;;;4954438;29;20182;-56
2022/07/06 01:31:24;;;;;;;4.28;0.82;;;;;;;;;;4937221;29;20766;-59
2022/07/06 01:33:52;;;;;;;3.28;0.90;;;;;;;;;;4936580;29;20198;-51
2022/07/06 01:36:18;;;;;;;2.05;0.63;;;;;;;;;;4947896;29;20214;-53
2022/07/06 01:38:45;;;;;;;2.53;0.70;;;;;;;;;;4954910;29;20198;-52
2022/07/06 01:41:12;;;;;;;2.67;0.70;;;;;;;;;;4937780;29;20197;-52
2022/07/06 01:43:39;;;;;;;3.85;0.68;;;;;;;;;;4952683;28;20562;-52
2022/07/06 01:46:05;;;;;;;4.55;1.00;;;;;;;;;;4937304;29;20206;-58
2022/07/06 01:48:31;;;;;;;3.25;0.85;;;;;;;;;;4954538;29;20182;-53
2022/07/06 01:50:58;;;;;;;4.38;0.75;;;;;;;;;;4954805;29;20175;-53
2022/07/06 01:53:25;;;;;;;4.18;0.80;;;;;;;;;;4954636;29;20190;-53
2022/07/06 01:55:51;;;;;;;2.35;0.90;;;;;;;;;;4937519;29;20241;-51
2022/07/06 01:58:17;;;;;;;8.57;1.13;;;;;;;;;;4920769;29;20245;-50
2022/07/06 02:00:43;;;;;;;5.90;0.82;;;;;;;;;;4936599;29;20230;-52
2022/07/06 02:03:09;;;;;;;3.70;0.80;;;;;;;;;;4954200;29;20191;-48
2022/07/06 02:05:37;;;;;;;6.10;0.80;;;;;;;;;;4954267;29;20183;-52
2022/07/06 02:08:04;;;;;;;2.85;0.82;;;;;;;;;;4937176;29;20666;-55
2022/07/06 02:10:32;;;;;;;2.67;0.80;;;;;;;;;;4947884;29;20202;-54
2022/07/06 02:12:58;;;;;;;3.40;0.82;;;;;;;;;;4952248;28;20215;-55
2022/07/06 02:15:25;;;;;;;4.75;0.75;;;;;;;;;;4954081;29;20192;-54
2022/07/06 02:17:51;;;;;;;3.80;0.90;;;;;;;;;;4919056;29;20223;-56
2022/07/06 02:20:17;;;;;;;4.63;0.70;;;;;;;;;;4954433;29;20178;-56
2022/07/06 02:22:44;;;;;;;4.13;0.90;;;;;;;;;;4937005;29;20183;-52
2022/07/06 02:25:10;;;;;;;2.53;0.90;;;;;;;;;;4936442;29;20285;-55
2022/07/06 02:27:39;;;;;;;3.08;0.88;;;;;;;;;;4937521;29;20685;-55
2022/07/06 02:30:08;;;;;;;4.80;0.80;;;;;;;;;;4936581;29;20183;-54
2022/07/06 02:32:35;;;;;;;3.15;0.77;;;;;;;;;;4936828;29;20266;-52
2022/07/06 02:35:02;;;;;;;3.22;0.80;;;;;;;;;;4920417;29;20194;-53
2022/07/06 02:37:29;;;;;;;4.40;0.90;;;;;;;;;;4937169;29;20225;-52
2022/07/06 02:39:56;;;;;;;4.15;1.00;;;;;;;;;;4937372;29;20179;-51
2022/07/06 02:42:22;;;;;;;2.13;0.82;;;;;;;;;;4938238;29;20190;-50
2022/07/06 02:44:48;;;;;;;4.05;0.90;;;;;;;;;;4955210;28;20661;-56
2022/07/06 02:47:15;;;;;;;4.30;0.85;;;;;;;;;;4939953;29;20536;-54
2022/07/06 02:49:41;;;;;;;2.13;0.60;;;;;;;;;;4921201;29;20206;-52
2022/07/06 02:52:08;;;;;;;2.40;0.82;;;;;;;;;;4944687;29;20631;-51
2022/07/06 02:54:35;;;;;;;3.28;1.63;;;;;;;;;;4939383;29;20202;-51
2022/07/06 02:57:01;;;;;;;1.88;0.70;;;;;;;;;;4939554;29;20734;-51
2022/07/06 02:59:27;;;;;;;1.20;0.57;;;;;;;;;;4957226;29;20186;-54
2022/07/06 03:01:54;;;;;;;3.85;0.80;;;;;;;;;;4956634;29;20645;-50
2022/07/06 03:04:21;;;;;;;2.25;0.57;;;;;;;;;;4940107;29;20199;-50
2022/07/06 03:06:47;;;;;;;2.92;0.80;;;;;;;;;;4956193;28;20273;-54
2022/07/06 03:09:14;;;;;;;1.10;0.50;;;;;;;;;;4939165;29;20338;-49
2022/07/06 03:11:40;;;;;;;2.80;0.80;;;;;;;;;;4956970;29;20269;-55
2022/07/06 03:14:06;;;;;;;3.65;0.70;;;;;;;;;;4956097;29;20226;-57
2022/07/06 03:16:35;;;;;;;1.80;0.75;;;;;;;;;;4935799;29;20274;-52
2022/07/06 03:19:01;;;;;;;7.65;0.85;;;;;;;;;;4923464;29;20186;-53
2022/07/06 03:21:31;;;;;;;3.58;0.70;;;;;;;;;;4940023;29;20183;-50
2022/07/06 03:23:57;;;;;;;4.32;1.52;;;;;;;;;;4937801;29;20186;-55
2022/07/06 03:26:24;;;;;;;2.80;0.73;;;;;;;;;;4956416;29;20183;-51
2022/07/06 03:28:51;;;;;;;5.18;0.80;;;;;;;;;;4939550;29;20710;-56
2022/07/06 03:31:17;;;;;;;4.53;0.80;;;;;;;;;;4939269;29;20187;-53
2022/07/06 03:33:44;;;;;;;3.17;0.93;;;;;;;;;;4921825;28;20190;-58
2022/07/06 03:36:10;;;;;;;4.88;0.98;;;;;;;;;;4939980;29;20221;-55
2022/07/06 03:38:36;;;;;;;3.20;0.70;;;;;;;;;;4939118;29;20206;-54
2022/07/06 03:41:03;;;;;;;5.15;0.90;;;;;;;;;;4939426;29;20183;-54
2022/07/06 03:43:30;;;;;;;8.05;1.25;;;;;;;;;;4938191;29;20710;-54
2022/07/06 03:45:56;;;;;;;6.28;1.13;;;;;;;;;;4922631;29;20523;-55
2022/07/06 03:48:23;;;;;;;2.58;0.70;;;;;;;;;;4938849;29;20194;-53
2022/07/06 03:50:51;;;;;;;7.63;0.90;;;;;;;;;;4939169;29;20201;-58
2022/07/06 03:53:17;;;;;;;2.90;0.60;;;;;;;;;;4946304;29;20186;-56
2022/07/06 03:56:27;;;;;;;5.63;1.35;;;;;;;;;;4937662;29;20585;-53
2022/07/06 03:58:30;;;;;;;3.80;1.00;;;;;;;;;;4923972;29;20190;-57
2022/07/06 04:00:56;;;;;;;9.48;0.95;;;;;;;;;;4922949;29;20217;-54
2022/07/06 04:03:22;;;;;;;3.92;0.75;;;;;;;;;;4955889;29;20190;-55
2022/07/06 04:05:50;;;;;;;3.70;0.95;;;;;;;;;;4923462;29;20654;-53
2022/07/06 04:08:16;;;;;;;4.72;0.90;;;;;;;;;;4939496;29;20190;-51
2022/07/06 04:10:50;;;;;;;3.20;0.88;;;;;;;;;;4942500;29;20190;-50
2022/07/06 04:13:16;;;;;;;7.13;0.85;;;;;;;;;;4931539;29;20234;-50
2022/07/06 04:15:43;;;;;;;5.10;0.90;;;;;;;;;;4955841;29;20183;-55
2022/07/06 04:18:09;;;;;;;4.30;1.00;;;;;;;;;;4937838;29;20686;-51
2022/07/06 04:20:42;;;;;;;7.88;1.30;;;;;;;;;;4938519;29;20214;-54
2022/07/06 04:23:08;;;;;;;6.20;1.08;;;;;;;;;;4937633;29;20182;-53
2022/07/06 04:25:34;;;;;;;3.60;1.05;;;;;;;;;;4939056;29;20179;-55
2022/07/06 04:28:02;;;;;;;5.65;1.02;;;;;;;;;;4938598;29;20190;-54
2022/07/06 04:30:30;;;;;;;7.72;1.02;;;;;;;;;;4938483;29;20206;-54
2022/07/06 04:32:57;;;;;;;6.95;0.90;;;;;;;;;;4938042;29;20265;-52
2022/07/06 04:35:26;;;;;;;2.92;0.80;;;;;;;;;;4937996;29;20185;-50
2022/07/06 04:37:53;;;;;;;7.20;1.08;;;;;;;;;;4936508;29;20253;-53
2022/07/06 04:40:21;;;;;;;7.70;1.05;;;;;;;;;;4938201;29;20207;-52
2022/07/06 04:42:50;;;;;;;4.07;0.80;;;;;;;;;;4955138;29;20210;-52
2022/07/06 04:45:17;;;;;;;3.70;0.85;;;;;;;;;;4937869;29;20206;-53
2022/07/06 04:47:44;;;;;;;3.55;0.73;;;;;;;;;;4936941;29;20545;-51
2022/07/06 04:50:11;;;;;;;7.25;1.00;;;;;;;;;;4938389;29;20187;-51
2022/07/06 04:52:38;;;;;;;6.50;1.33;;;;;;;;;;4937398;29;20186;-52
2022/07/06 04:55:05;;;;;;;5.20;1.13;;;;;;;;;;4938082;29;20186;-48
2022/07/06 04:57:33;;;;;;;5.05;1.00;;;;;;;;;;4937051;29;20305;-52
2022/07/06 05:00:00;;;;;;;6.03;0.80;;;;;;;;;;4923013;29;20183;-50
2022/07/06 05:02:26;;;;;;;2.95;0.75;;;;;;;;;;4936507;29;20253;-50
2022/07/06 05:04:52;;;;;;;2.47;0.73;;;;;;;;;;4954648;28;20186;-56
2022/07/06 05:07:19;;;;;;;3.30;0.70;;;;;;;;;;4938119;29;20201;-50
2022/07/06 05:09:46;;;;;;;2.47;0.82;;;;;;;;;;4938063;29;20531;-53
2022/07/06 05:12:13;;;;;;;5.93;1.02;;;;;;;;;;4920651;29;20278;-54
2022/07/06 05:14:39;;;;;;;6.22;1.00;;;;;;;;;;4937396;29;20186;-53
2022/07/06 05:17:07;;;;;;;4.40;1.50;;;;;;;;;;4938214;29;20222;-52
2022/07/06 05:19:34;;;;;;;6.32;1.00;;;;;;;;;;4923015;29;20191;-48
2022/07/06 05:22:00;;;;;;;2.88;0.88;;;;;;;;;;4922139;29;20201;-53
2022/07/06 05:24:27;;;;;;;2.70;0.80;;;;;;;;;;4937825;29;20183;-51
2022/07/06 05:26:53;;;;;;;2.50;0.80;;;;;;;;;;4937128;29;20195;-50
2022/07/06 05:29:19;;;;;;;2.88;1.38;;;;;;;;;;4938195;29;20190;-54
2022/07/06 05:31:46;;;;;;;4.18;1.00;;;;;;;;;;4937203;29;20248;-52
2022/07/06 05:34:12;;;;;;;3.92;0.82;;;;;;;;;;4937707;29;20190;-55
2022/07/06 05:36:39;;;;;;;9.68;1.40;;;;;;;;;;4934174;28;20249;-53
2022/07/06 05:39:05;;;;;;;10.50;1.80;;;;;;;;;;4934852;29;20242;-51
2022/07/06 05:41:32;;;;;;;7.07;1.23;;;;;;;;;;4918628;29;20223;-49
2022/07/06 05:44:00;;;;;;;4.60;0.90;;;;;;;;;;4919708;29;20213;-54
2022/07/06 05:46:28;;;;;;;3.53;0.88;;;;;;;;;;4936797;29;20222;-51
2022/07/06 05:51:38;;;;;;;4.63;0.73;;;;;;;;;;4937435;29;20515;-52
2022/07/06 05:54:06;;;;;;;6.55;1.50;;;;;;;;;;4919143;29;20205;-51
2022/07/06 05:56:32;;;;;;;5.28;0.80;;;;;;;;;;4918292;29;20286;-50
2022/07/06 05:59:00;;;;;;;3.72;0.90;;;;;;;;;;4902694;29;20194;-51
2022/07/06 06:01:26;;;;;;;3.47;0.88;;;;;;;;;;4927407;29;20558;-48
2022/07/06 06:04:03;;;;;;;3.50;0.90;;;;;;;;;;4937101;29;20209;-47
2022/07/06 06:06:31;;;;;;;3.10;0.80;;;;;;;;;;4937418;29;20198;-50
2022/07/06 06:08:57;;;;;;;6.00;0.85;;;;;;;;;;4937785;29;20194;-55
2022/07/06 06:11:24;;;;;;;3.90;0.90;;;;;;;;;;4922648;29;20245;-52
2022/07/06 06:13:50;;;;;;;3.85;0.80;;;;;;;;;;4923377;29;20239;-53
2022/07/06 06:16:16;;;;;;;3.20;0.88;;;;;;;;;;4919709;29;20242;-53
2022/07/06 06:18:43;;;;;;;6.53;0.70;;;;;;;;;;4937521;29;20236;-48
2022/07/06 06:21:10;;;;;;;4.85;0.80;;;;;;;;;;4939312;29;20193;-53
2022/07/06 06:23:36;;;;;;;2.45;0.70;;;;;;;;;;4952039;29;20182;-59
2022/07/06 06:26:02;;;;;;;3.80;0.70;;;;;;;;;;4956839;29;20285;-57
2022/07/06 06:28:29;;;;;;;2.88;1.08;;;;;;;;;;4957366;29;20662;-52
2022/07/06 06:30:55;;;;;;;2.92;0.70;;;;;;;;;;4957350;29;20190;-54
2022/07/06 06:33:21;;;;;;;2.72;0.90;;;;;;;;;;4957410;29;20194;-56
2022/07/06 06:35:48;;;;;;;3.30;0.77;;;;;;;;;;4956293;28;20179;-52
2022/07/06 06:38:15;;;;;;;4.15;0.70;;;;;;;;;;4939802;29;20196;-54
2022/07/06 06:40:41;;;;;;;2.00;0.68;;;;;;;;;;4940037;29;20655;-52
2022/07/06 06:43:08;;;;;;;2.80;0.70;;;;;;;;;;4956346;29;20186;-51
2022/07/06 06:45:38;;;;;;;2.78;0.80;;;;;;;;;;4940465;29;20605;-52
2022/07/06 06:48:04;;;;;;;7.05;0.73;;;;;;;;;;4956768;28;20794;-53
2022/07/06 06:50:31;;;;;;;6.18;0.60;;;;;;;;;;4940076;29;20214;-53
2022/07/06 06:52:57;;;;;;;0.95;0.40;;;;;;;;;;4957367;29;20194;-55
2022/07/06 06:55:23;;;;;;;4.03;0.70;;;;;;;;;;4940137;29;20197;-53
2022/07/06 06:57:49;;;;;;;3.70;0.85;;;;;;;;;;4956844;29;20227;-52
2022/07/06 07:00:15;;;;;;;2.75;1.00;;;;;;;;;;4947146;29;20217;-51
2022/07/06 07:02:41;;;;;;;2.60;0.80;;;;;;;;;;4956399;28;20224;-54
2022/07/06 07:05:08;;;;;;;3.78;0.70;;;;;;;;;;4957304;29;20179;-54
2022/07/06 07:07:36;;;;;;;7.78;0.88;;;;;;;;;;4955664;28;20182;-54
2022/07/06 07:10:03;;;;;;;2.45;0.70;;;;;;;;;;4957046;29;20201;-51
2022/07/06 07:12:29;;;;;;;7.47;0.90;;;;;;;;;;4956596;29;20226;-54
2022/07/06 07:14:55;;;;;;;10.00;0.95;;;;;;;;;;4956720;29;20697;-52
2022/07/06 07:17:21;;;;;;;3.75;1.30;;;;;;;;;;4956610;29;20690;-54
2022/07/06 07:19:47;;;;;;;3.28;1.08;;;;;;;;;;4938744;29;20189;-53
2022/07/06 07:22:13;;;;;;;1.83;0.70;;;;;;;;;;4956491;29;20686;-55
2022/07/06 07:24:39;;;;;;;8.20;1.23;;;;;;;;;;4956447;29;20189;-54
2022/07/06 07:27:06;;;;;;;1.75;0.70;;;;;;;;;;4956515;28;20179;-51
2022/07/06 07:29:32;;;;;;;1.17;0.63;;;;;;;;;;4939775;29;20190;-55
2022/07/06 07:31:58;;;;;;;1.55;0.70;;;;;;;;;;4956088;29;20187;-51
2022/07/06 07:34:24;;;;;;;3.10;0.70;;;;;;;;;;4955428;28;20281;-50
2022/07/06 07:36:50;;;;;;;1.73;0.68;;;;;;;;;;4956251;29;20226;-53
2022/07/06 07:39:16;;;;;;;2.97;0.60;;;;;;;;;;4956684;29;20233;-53
2022/07/06 07:41:42;;;;;;;3.63;0.70;;;;;;;;;;4955486;29;20218;-53
2022/07/06 07:44:08;;;;;;;2.17;0.68;;;;;;;;;;4937681;29;20222;-51
2022/07/06 07:46:35;;;;;;;2.55;0.60;;;;;;;;;;4956392;29;20198;-49
2022/07/06 07:49:01;;;;;;;2.70;0.60;;;;;;;;;;4956532;29;20182;-53
2022/07/06 07:51:29;;;;;;;4.00;0.70;;;;;;;;;;4939234;29;20666;-48
2022/07/06 07:53:55;;;;;;;2.83;0.60;;;;;;;;;;4955568;28;20647;-50
2022/07/06 07:56:21;;;;;;;1.40;0.77;;;;;;;;;;4956492;29;20217;-54
2022/07/06 07:58:48;;;;;;;4.70;0.50;;;;;;;;;;4956524;29;20226;-50
2022/07/06 08:01:17;;;;;;;2.80;0.80;;;;;;;;;;4923836;29;20183;-50
2022/07/06 08:03:43;;;;;;;4.57;0.60;;;;;;;;;;4956157;29;20275;-48
2022/07/06 08:06:09;;;;;;;3.70;0.80;;;;;;;;;;4938942;29;20206;-50
2022/07/06 08:08:36;;;;;;;1.10;0.50;;;;;;;;;;4955063;28;20639;-52
2022/07/06 08:11:02;;;;;;;6.65;1.35;;;;;;;;;;4956164;29;20635;-49
2022/07/06 08:13:28;;;;;;;2.15;0.77;;;;;;;;;;4938185;29;20239;-50
2022/07/06 08:15:54;;;;;;;4.45;0.80;;;;;;;;;;4956130;29;20182;-53
2022/07/06 08:18:20;;;;;;;3.92;0.70;;;;;;;;;;4955709;29;20183;-55
2022/07/06 08:20:46;;;;;;;4.20;0.80;;;;;;;;;;4956081;29;20186;-49
2022/07/06 08:23:13;;;;;;;1.85;0.82;;;;;;;;;;4953862;28;20277;-51
2022/07/06 08:25:39;;;;;;;8.70;0.80;;;;;;;;;;4954865;29;20183;-53
2022/07/06 08:28:05;;;;;;;3.17;0.70;;;;;;;;;;4955242;28;20631;-51
2022/07/06 08:30:34;;;;;;;2.20;0.65;;;;;;;;;;4938792;29;20556;-53
2022/07/06 08:33:01;;;;;;;3.05;0.73;;;;;;;;;;4955623;29;20187;-49
2022/07/06 08:35:27;;;;;;;2.35;0.65;;;;;;;;;;4955494;29;20722;-56
2022/07/06 08:37:53;;;;;;;1.65;0.70;;;;;;;;;;4938013;28;20218;-56
2022/07/06 08:40:19;;;;;;;3.95;0.65;;;;;;;;;;4954455;28;20209;-51
2022/07/06 08:42:48;;;;;;;1.27;0.55;;;;;;;;;;4938707;29;20686;-53
2022/07/06 08:45:14;;;;;;;1.63;0.68;;;;;;;;;;4955161;29;20635;-50
2022/07/06 08:47:42;;;;;;;0.85;0.60;;;;;;;;;;4954722;28;20182;-51
2022/07/06 08:50:10;;;;;;;2.58;1.38;;;;;;;;;;4955575;29;20178;-49
2022/07/06 08:52:36;;;;;;;1.40;0.60;;;;;;;;;;4954690;28;20181;-47
2022/07/06 08:55:03;;;;;;;2.55;0.45;;;;;;;;;;4938413;29;20600;-52
2022/07/06 08:57:29;;;;;;;4.80;0.75;;;;;;;;;;4955252;29;20229;-49
2022/07/06 08:59:56;;;;;;;1.55;0.60;;;;;;;;;;4955355;29;20183;-46
2022/07/06 09:02:24;;;;;;;1.85;0.70;;;;;;;;;;4938012;29;20191;-51
2022/07/06 09:04:51;;;;;;;6.78;1.08;;;;;;;;;;4937816;29;20189;-52
2022/07/06 09:07:18;;;;;;;2.78;0.50;;;;;;;;;;4954123;28;20194;-53
2022/07/06 09:09:45;;;;;;;4.65;0.60;;;;;;;;;;4952854;28;20269;-53
2022/07/06 09:12:14;;;;;;;2.05;0.60;;;;;;;;;;4936908;29;20230;-53
2022/07/06 09:14:40;;;;;;;2.95;0.63;;;;;;;;;;4954707;29;20190;-53
2022/07/06 09:17:07;;;;;;;2.42;0.65;;;;;;;;;;4954977;29;20300;-50
2022/07/06 09:19:34;;;;;;;1.90;0.40;;;;;;;;;;4954793;29;20194;-52
2022/07/06 09:22:04;;;;;;;2.15;0.65;;;;;;;;;;4938028;29;20551;-57
2022/07/06 09:24:31;;;;;;;2.92;0.55;;;;;;;;;;4937768;29;20175;-51
2022/07/06 09:26:58;;;;;;;2.78;0.40;;;;;;;;;;4953686;28;20195;-51
2022/07/06 09:29:28;;;;;;;2.20;1.20;;;;;;;;;;4955338;29;20197;-49
2022/07/06 09:32:01;;;;;;;3.53;0.60;;;;;;;;;;4954852;29;20246;-53
2022/07/06 09:34:43;;;;;;;0.98;0.50;;;;;;;;;;4954851;29;20206;-52
2022/07/06 09:37:10;;;;;;;6.40;0.90;;;;;;;;;;4937706;29;20210;-52
2022/07/06 09:39:36;;;;;;;4.18;0.77;;;;;;;;;;4954478;29;20178;-51
2022/07/06 09:42:03;;;;;;;2.25;0.60;;;;;;;;;;4953352;28;20190;-54
2022/07/06 09:44:48;;;;;;;1.90;0.70;;;;;;;;;;4954009;29;20190;-52
2022/07/06 09:47:15;;;;;;;3.13;0.60;;;;;;;;;;4937253;29;20249;-52
2022/07/06 09:49:41;;;;;;;4.00;0.80;;;;;;;;;;4954711;29;20190;-52
2022/07/06 09:52:09;;;;;;;1.13;0.60;;;;;;;;;;4940725;29;20524;-49
2022/07/06 09:54:36;;;;;;;1.40;0.70;;;;;;;;;;4940872;29;20186;-52
2022/07/06 09:57:03;;;;;;;2.90;0.70;;;;;;;;;;4941393;29;20215;-52
2022/07/06 09:59:31;;;;;;;2.05;0.52;;;;;;;;;;4958127;29;20592;-53
2022/07/06 10:01:58;;;;;;;1.95;0.60;;;;;;;;;;4955570;28;20193;-51
2022/07/06 10:04:25;;;;;;;4.65;0.50;;;;;;;;;;4958245;29;20178;-51
2022/07/06 10:06:52;;;;;;;3.00;0.50;;;;;;;;;;4958534;29;20217;-51
2022/07/06 10:09:20;;;;;;;4.60;0.68;;;;;;;;;;4958374;29;20276;-55
2022/07/06 10:11:49;;;;;;;2.15;0.60;;;;;;;;;;4946861;29;20178;-54
2022/07/06 10:14:18;;;;;;;5.65;0.65;;;;;;;;;;4956956;28;20194;-53
2022/07/06 10:16:45;;;;;;;4.78;0.73;;;;;;;;;;4941153;29;20206;-54
2022/07/06 10:19:12;;;;;;;2.78;0.50;;;;;;;;;;4957072;28;20643;-50
2022/07/06 10:21:40;;;;;;;2.50;0.80;;;;;;;;;;4958144;29;20182;-52
2022/07/06 10:24:07;;;;;;;6.35;0.70;;;;;;;;;;4957855;29;20666;-51
2022/07/06 10:26:34;;;;;;;0.95;0.50;;;;;;;;;;4924761;29;20194;-52
2022/07/06 10:29:01;;;;;;;2.95;0.70;;;;;;;;;;4940155;29;20191;-52
2022/07/06 10:31:29;;;;;;;2.70;0.60;;;;;;;;;;4940895;29;20183;-50
2022/07/06 10:33:56;;;;;;;2.70;0.90;;;;;;;;;;4957757;29;20238;-58
2022/07/06 10:36:23;;;;;;;4.20;0.80;;;;;;;;;;4940517;29;20228;-51
2022/07/06 10:38:50;;;;;;;1.88;0.60;;;;;;;;;;4939627;29;20195;-52
2022/07/06 10:41:16;;;;;;;1.75;0.57;;;;;;;;;;4957891;29;20175;-51
2022/07/06 10:43:43;;;;;;;2.15;0.60;;;;;;;;;;4957318;29;20178;-49
2022/07/06 10:46:20;;;;;;;6.68;0.70;;;;;;;;;;4955702;29;20206;-50
2022/07/06 10:48:48;;;;;;;2.50;0.55;;;;;;;;;;4940494;29;20630;-50
2022/07/06 10:51:23;;;;;;;4.25;0.60;;;;;;;;;;4957362;29;20170;-54
2022/07/06 10:53:56;;;;;;;5.15;0.80;;;;;;;;;;4934405;29;20262;-57
2022/07/06 10:56:32;;;;;;;1.85;0.70;;;;;;;;;;4943265;29;20281;-52
2022/07/06 10:59:02;;;;;;;1.10;0.70;;;;;;;;;;4957525;29;20269;-52
2022/07/06 11:01:29;;;;;;;2.55;0.65;;;;;;;;;;4956690;29;20250;-50
2022/07/06 11:03:58;;;;;;;2.45;0.80;;;;;;;;;;4939058;29;20854;-49
2022/07/06 11:06:25;;;;;;;1.83;0.88;;;;;;;;;;4957182;29;20600;-52
2022/07/06 11:08:58;;;;;;;3.22;0.63;;;;;;;;;;4955756;28;20650;-51
2022/07/06 11:11:40;;;;;;;2.95;0.73;;;;;;;;;;4957380;29;20209;-52
2022/07/06 11:14:07;;;;;;;1.25;0.55;;;;;;;;;;4956106;29;20234;-55
2022/07/06 11:16:36;;;;;;;3.80;0.80;;;;;;;;;;4957429;29;20217;-53
2022/07/06 11:19:12;;;;;;;3.90;0.82;;;;;;;;;;4945088;29;20194;-53
2022/07/06 11:21:46;;;;;;;2.65;0.65;;;;;;;;;;4957229;29;20540;-49
2022/07/06 11:24:23;;;;;;;5.47;0.60;;;;;;;;;;4957268;29;20179;-50
2022/07/06 11:26:50;;;;;;;3.55;0.68;;;;;;;;;;4940300;29;20201;-52
2022/07/06 11:29:17;;;;;;;10.00;0.82;;;;;;;;;;4955818;28;20201;-52
2022/07/06 11:31:46;;;;;;;2.25;0.57;;;;;;;;;;4956925;29;20642;-54
2022/07/06 11:34:16;;;;;;;3.20;0.70;;;;;;;;;;4957207;29;20198;-51
2022/07/06 11:36:43;;;;;;;5.95;0.90;;;;;;;;;;4956367;29;20584;-53
2022/07/06 11:39:09;;;;;;;4.50;0.93;;;;;;;;;;4956131;28;20191;-59
2022/07/06 11:41:36;;;;;;;11.73;1.20;;;;;;;;;;4956673;29;20179;-48
2022/07/06 11:44:03;;;;;;;4.93;1.10;;;;;;;;;;4955921;29;20187;-52
2022/07/06 11:46:29;;;;;;;3.75;1.00;;;;;;;;;;4956737;29;20179;-53
2022/07/06 11:48:56;;;;;;;11.75;1.35;;;;;;;;;;4955741;28;20206;-51
2022/07/06 11:51:24;;;;;;;4.55;1.00;;;;;;;;;;4938792;29;20190;-52
2022/07/06 11:53:53;;;;;;;9.77;1.48;;;;;;;;;;4956502;29;20202;-49
2022/07/06 11:56:21;;;;;;;4.82;1.20;;;;;;;;;;4956562;29;20614;-55
2022/07/06 11:58:51;;;;;;;2.55;0.93;;;;;;;;;;4956152;29;20205;-52
2022/07/06 12:01:17;;;;;;;6.38;1.02;;;;;;;;;;4939346;29;20249;-53
2022/07/06 12:03:44;;;;;;;13.25;1.33;;;;;;;;;;4955103;28;20199;-50
2022/07/06 12:06:24;;;;;;;17.90;1.60;;;;;;;;;;4953772;29;20187;-52
2022/07/06 12:08:52;;;;;;;7.32;0.95;;;;;;;;;;4954482;28;20241;-55
2022/07/06 12:11:28;;;;;;;13.10;1.50;;;;;;;;;;4939265;29;20222;-53
2022/07/06 12:13:55;;;;;;;2.40;0.80;;;;;;;;;;4955158;28;20297;-53
2022/07/06 12:16:23;;;;;;;13.13;1.38;;;;;;;;;;4955978;29;20343;-54
2022/07/06 12:18:51;;;;;;;8.60;1.35;;;;;;;;;;4954167;28;20217;-53
2022/07/06 12:21:20;;;;;;;2.13;0.80;;;;;;;;;;4939505;29;20190;-53
2022/07/06 12:23:47;;;;;;;9.23;1.20;;;;;;;;;;4955825;29;20277;-51
2022/07/06 12:26:14;;;;;;;19.55;1.85;;;;;;;;;;4955597;29;20214;-49
2022/07/06 12:28:41;;;;;;;9.27;1.27;;;;;;;;;;4955763;29;20197;-53
2022/07/06 12:31:07;;;;;;;4.50;1.35;;;;;;;;;;4955679;29;20182;-49
2022/07/06 12:33:34;;;;;;;9.10;1.48;;;;;;;;;;4954854;28;20175;-52
2022/07/06 12:36:16;;;;;;;18.88;2.08;;;;;;;;;;4955001;29;20563;-52
2022/07/06 12:38:47;;;;;;;9.63;1.83;;;;;;;;;;4955052;29;20212;-53
2022/07/06 12:41:25;;;;;;;12.30;1.90;;;;;;;;;;4955659;29;20214;-52
2022/07/06 12:44:00;;;;;;;15.20;1.95;;;;;;;;;;4954779;29;20630;-52
2022/07/06 12:46:32;;;;;;;14.45;1.77;;;;;;;;;;4954292;28;20650;-48
2022/07/06 12:48:59;;;;;;;9.73;1.63;;;;;;;;;;4938192;29;20528;-49
2022/07/06 12:51:26;;;;;;;18.60;2.50;;;;;;;;;;4954305;29;20182;-48
2022/07/06 12:53:52;;;;;;;7.55;1.20;;;;;;;;;;4955294;29;20277;-49
2022/07/06 12:56:19;;;;;;;10.27;1.48;;;;;;;;;;4946099;29;20226;-50
2022/07/06 12:58:58;;;;;;;6.32;1.27;;;;;;;;;;4955609;28;20194;-49
2022/07/06 13:01:24;;;;;;;4.70;1.77;;;;;;;;;;4954900;28;20197;-51
2022/07/06 13:03:54;;;;;;;4.30;1.40;;;;;;;;;;4938226;29;20706;-52
2022/07/06 13:06:30;;;;;;;8.02;1.58;;;;;;;;;;4954756;29;20179;-56
2022/07/06 13:08:56;;;;;;;5.22;1.42;;;;;;;;;;4954991;29;20181;-52
2022/07/06 13:11:22;;;;;;;2.67;1.30;;;;;;;;;;4936442;29;20263;-52
2022/07/06 13:13:49;;;;;;;4.20;1.50;;;;;;;;;;4953286;29;20226;-52
2022/07/06 13:16:15;;;;;;;4.68;1.50;;;;;;;;;;4955075;29;20214;-50
2022/07/06 13:18:42;;;;;;;4.10;1.55;;;;;;;;;;4954789;28;20675;-50
2022/07/06 13:21:08;;;;;;;6.20;2.30;;;;;;;;;;4953985;29;20193;-52
2022/07/06 13:23:34;;;;;;;10.02;2.70;;;;;;;;;;4954764;29;20230;-48
2022/07/06 13:26:01;;;;;;;8.52;2.58;;;;;;;;;;4952819;28;20718;-48
2022/07/06 13:28:27;;;;;;;7.15;2.42;;;;;;;;;;4954907;29;20226;-52
2022/07/06 13:30:53;;;;;;;14.00;2.10;;;;;;;;;;4951043;29;20186;-51
2022/07/06 13:33:19;;;;;;;11.43;2.38;;;;;;;;;;4953736;29;20242;-50
2022/07/06 13:35:45;;;;;;;20.33;3.10;;;;;;;;;;4937995;29;20187;-50
2022/07/06 13:38:12;;;;;;;8.07;2.58;;;;;;;;;;4937421;29;20246;-52
2022/07/06 13:40:38;;;;;;;6.88;2.45;;;;;;;;;;4954800;29;20191;-50
2022/07/06 13:43:04;;;;;;;12.57;2.80;;;;;;;;;;4954956;29;20565;-52
2022/07/06 13:45:30;;;;;;;7.97;3.10;;;;;;;;;;4936195;29;20186;-53
2022/07/06 13:47:58;;;;;;;9.13;2.83;;;;;;;;;;4953779;29;20225;-54
2022/07/06 13:50:25;;;;;;;7.68;3.20;;;;;;;;;;4953988;28;20183;-51
2022/07/06 13:52:51;;;;;;;11.95;4.50;;;;;;;;;;4954157;29;20191;-51
2022/07/06 13:55:18;;;;;;;14.60;6.18;;;;;;;;;;4954544;29;20211;-52
2022/07/06 13:57:45;;;;;;;22.10;8.90;;;;;;;;;;4937363;29;20257;-50
2022/07/06 14:00:11;;;;;;;24.98;10.20;;;;;;;;;;4937409;29;20190;-53
2022/07/06 14:02:38;;;;;;;25.95;11.57;;;;;;;;;;4937242;29;20182;-50
2022/07/06 14:05:04;;;;;;;16.15;10.00;;;;;;;;;;4952741;28;20590;-51
2022/07/06 14:07:30;;;;;;;22.42;11.23;;;;;;;;;;4920921;29;20195;-52
2022/07/06 14:09:56;;;;;;;22.77;11.73;;;;;;;;;;4954656;29;20174;-52
2022/07/06 14:12:23;;;;;;;23.40;11.82;;;;;;;;;;4953170;28;20341;-52
2022/07/06 14:14:50;;;;;;;24.08;10.05;;;;;;;;;;4954176;29;20202;-52
2022/07/06 14:17:16;;;;;;;16.77;9.55;;;;;;;;;;4937284;29;20221;-54
2022/07/06 14:19:42;;;;;;;22.10;11.50;;;;;;;;;;4954148;29;20281;-49
2022/07/06 14:22:08;;;;;;;22.75;12.52;;;;;;;;;;4938056;29;20643;-53
2022/07/06 14:24:34;;;;;;;19.02;10.32;;;;;;;;;;4953795;28;20498;-51
2022/07/06 14:27:01;;;;;;;13.10;6.65;;;;;;;;;;4954593;29;20182;-52
2022/07/06 14:29:28;;;;;;;10.10;4.30;;;;;;;;;;4954290;29;20179;-54
2022/07/06 14:31:54;;;;;;;12.68;3.55;;;;;;;;;;4936858;29;20183;-53
2022/07/06 14:34:20;;;;;;;8.27;3.28;;;;;;;;;;4953569;29;20266;-54
2022/07/06 14:36:46;;;;;;;12.10;2.45;;;;;;;;;;4954989;28;20265;-58
2022/07/06 14:39:12;;;;;;;9.95;3.22;;;;;;;;;;4955716;28;20194;-50
2022/07/06 14:41:39;;;;;;;11.02;3.22;;;;;;;;;;4957825;29;20210;-50
2022/07/06 14:44:05;;;;;;;9.13;2.63;;;;;;;;;;4940308;29;20229;-51
2022/07/06 14:46:32;;;;;;;7.43;2.33;;;;;;;;;;4924803;29;20183;-49